sensor_id;sensor_type;location;lat;lon;timestamp;temperature;humidity
11083;DHT22;5595;50.186;8.468;2023-05-10T00:00:41;13.60;99.90
11083;DHT22;5595;50.186;8.468;2023-05-10T00:03:07;13.70;99.90
11083;DHT22;5595;50.186;8.468;2023-05-10T00:05:34;13.70;99.90
11083;DHT22;5595;50.186;8.468;2023-05-10T00:08:01;13.70;99.90
11083;DHT22;5595;50.186;8.468;2023-05-10T00:10:28;13.60;99.90
11083;DHT22;5595;50.186;8.468;2023-05-10T00:12:56;13.70;99.90
11083;DHT22;5595;50.186;8.468;2023-05-10T00:15:23;13.70;99.90
11083;DHT22;5595;50.186;8.468;2023-05-10T00:17:50;13.70;99.90
11083;DHT22;5595;50.186;8.468;2023-05-10T00:20:17;13.70;99.90
11083;DHT22;5595;50.186;8.468;2023-05-10T00:22:43;13.60;99.90
11083;DHT22;5595;50.186;8.468;2023-05-10T00:25:10;13.50;99.90
11083;DHT22;5595;50.186;8.468;2023-05-10T00:27:37;13.50;99.90
11083;DHT22;5595;50.186;8.468;2023-05-10T00:30:07;13.40;99.90
11083;DHT22;5595;50.186;8.468;2023-05-10T00:32:33;13.30;99.90
11083;DHT22;5595;50.186;8.468;2023-05-10T00:35:00;13.30;99.90
11083;DHT22;5595;50.186;8.468;2023-05-10T00:37:27;13.20;99.90
11083;DHT22;5595;50.186;8.468;2023-05-10T00:39:54;13.20;99.90
11083;DHT22;5595;50.186;8.468;2023-05-10T00:42:21;13.20;99.90
11083;DHT22;5595;50.186;8.468;2023-05-10T00:44:48;13.10;99.90
11083;DHT22;5595;50.186;8.468;2023-05-10T00:47:16;13.10;99.90
11083;DHT22;5595;50.186;8.468;2023-05-10T00:49:43;13.10;99.90
11083;DHT22;5595;50.186;8.468;2023-05-10T00:52:10;13.10;99.90
11083;DHT22;5595;50.186;8.468;2023-05-10T00:54:37;13.10;99.90
11083;DHT22;5595;50.186;8.468;2023-05-10T00:57:04;13.30;99.90
11083;DHT22;5595;50.186;8.468;2023-05-10T00:59:31;13.30;99.90
11083;DHT22;5595;50.186;8.468;2023-05-10T01:01:58;13.40;99.90
11083;DHT22;5595;50.186;8.468;2023-05-10T01:04:26;13.40;99.90
11083;DHT22;5595;50.186;8.468;2023-05-10T01:06:54;13.50;99.90
11083;DHT22;5595;50.186;8.468;2023-05-10T01:09:21;13.50;99.90
11083;DHT22;5595;50.186;8.468;2023-05-10T01:11:49;13.50;99.90
11083;DHT22;5595;50.186;8.468;2023-05-10T01:14:18;13.50;99.90
11083;DHT22;5595;50.186;8.468;2023-05-10T01:16:47;13.50;99.90
11083;DHT22;5595;50.186;8.468;2023-05-10T01:19:20;13.50;99.90
11083;DHT22;5595;50.186;8.468;2023-05-10T01:21:55;13.50;99.90
11083;DHT22;5595;50.186;8.468;2023-05-10T01:24:46;13.50;99.90
11083;DHT22;5595;50.186;8.468;2023-05-10T01:27:45;13.60;99.90
11083;DHT22;5595;50.186;8.468;2023-05-10T01:30:28;13.40;99.90
11083;DHT22;5595;50.186;8.468;2023-05-10T01:33:07;13.50;99.90
11083;DHT22;5595;50.186;8.468;2023-05-10T01:35:41;13.50;99.90
11083;DHT22;5595;50.186;8.468;2023-05-10T01:38:15;13.50;99.90
11083;DHT22;5595;50.186;8.468;2023-05-10T01:40:51;13.50;99.90
11083;DHT22;5595;50.186;8.468;2023-05-10T01:43:22;13.50;99.90
11083;DHT22;5595;50.186;8.468;2023-05-10T01:45:57;13.60;99.90
11083;DHT22;5595;50.186;8.468;2023-05-10T01:48:28;13.50;99.90
11083;DHT22;5595;50.186;8.468;2023-05-10T01:50:57;13.50;99.90
11083;DHT22;5595;50.186;8.468;2023-05-10T01:53:24;13.50;99.90
11083;DHT22;5595;50.186;8.468;2023-05-10T01:55:53;13.40;99.90
11083;DHT22;5595;50.186;8.468;2023-05-10T01:58:25;13.40;99.90
11083;DHT22;5595;50.186;8.468;2023-05-10T02:00:54;13.50;99.90
11083;DHT22;5595;50.186;8.468;2023-05-10T02:03:23;13.40;99.90
11083;DHT22;5595;50.186;8.468;2023-05-10T02:05:52;13.50;99.90
11083;DHT22;5595;50.186;8.468;2023-05-10T02:08:21;13.40;99.90
11083;DHT22;5595;50.186;8.468;2023-05-10T02:10:50;13.50;99.90
11083;DHT22;5595;50.186;8.468;2023-05-10T02:13:18;13.40;99.90
11083;DHT22;5595;50.186;8.468;2023-05-10T02:15:48;13.40;99.90
11083;DHT22;5595;50.186;8.468;2023-05-10T02:18:15;13.40;99.90
11083;DHT22;5595;50.186;8.468;2023-05-10T02:20:44;13.40;99.90
11083;DHT22;5595;50.186;8.468;2023-05-10T02:23:13;13.40;99.90
11083;DHT22;5595;50.186;8.468;2023-05-10T02:25:43;13.20;99.90
11083;DHT22;5595;50.186;8.468;2023-05-10T02:28:10;13.20;99.90
11083;DHT22;5595;50.186;8.468;2023-05-10T02:30:38;13.20;99.90
11083;DHT22;5595;50.186;8.468;2023-05-10T02:33:06;13.20;99.90
11083;DHT22;5595;50.186;8.468;2023-05-10T02:35:34;13.30;99.90
11083;DHT22;5595;50.186;8.468;2023-05-10T02:38:01;13.30;99.90
11083;DHT22;5595;50.186;8.468;2023-05-10T02:40:31;13.30;99.90
11083;DHT22;5595;50.186;8.468;2023-05-10T02:42:59;13.30;99.90
11083;DHT22;5595;50.186;8.468;2023-05-10T02:45:31;13.30;99.90
11083;DHT22;5595;50.186;8.468;2023-05-10T02:47:58;13.30;99.90
11083;DHT22;5595;50.186;8.468;2023-05-10T02:50:27;13.20;99.90
11083;DHT22;5595;50.186;8.468;2023-05-10T02:52:59;13.20;99.90
11083;DHT22;5595;50.186;8.468;2023-05-10T02:55:30;13.20;99.90
11083;DHT22;5595;50.186;8.468;2023-05-10T02:57:59;13.10;99.90
11083;DHT22;5595;50.186;8.468;2023-05-10T03:00:27;13.10;99.90
11083;DHT22;5595;50.186;8.468;2023-05-10T03:02:54;13.00;99.90
11083;DHT22;5595;50.186;8.468;2023-05-10T03:05:21;12.90;99.90
11083;DHT22;5595;50.186;8.468;2023-05-10T03:07:48;13.10;99.90
11083;DHT22;5595;50.186;8.468;2023-05-10T03:10:16;12.80;99.90
11083;DHT22;5595;50.186;8.468;2023-05-10T03:12:56;12.70;99.90
11083;DHT22;5595;50.186;8.468;2023-05-10T03:15:33;12.70;99.90
11083;DHT22;5595;50.186;8.468;2023-05-10T03:18:06;12.70;99.90
11083;DHT22;5595;50.186;8.468;2023-05-10T03:20:38;12.70;99.90
11083;DHT22;5595;50.186;8.468;2023-05-10T03:23:12;12.60;99.90
11083;DHT22;5595;50.186;8.468;2023-05-10T03:25:41;12.60;99.90
11083;DHT22;5595;50.186;8.468;2023-05-10T03:28:11;12.60;99.90
11083;DHT22;5595;50.186;8.468;2023-05-10T03:30:39;12.60;99.90
11083;DHT22;5595;50.186;8.468;2023-05-10T03:33:07;12.80;99.90
11083;DHT22;5595;50.186;8.468;2023-05-10T03:35:34;12.70;99.90
11083;DHT22;5595;50.186;8.468;2023-05-10T03:38:01;12.90;99.90
11083;DHT22;5595;50.186;8.468;2023-05-10T03:40:28;12.90;99.90
11083;DHT22;5595;50.186;8.468;2023-05-10T03:42:57;12.90;99.90
11083;DHT22;5595;50.186;8.468;2023-05-10T03:45:25;13.00;99.90
11083;DHT22;5595;50.186;8.468;2023-05-10T03:47:52;13.10;99.90
11083;DHT22;5595;50.186;8.468;2023-05-10T03:50:19;13.00;99.90
11083;DHT22;5595;50.186;8.468;2023-05-10T03:52:46;13.20;99.90
11083;DHT22;5595;50.186;8.468;2023-05-10T03:55:14;13.20;99.90
11083;DHT22;5595;50.186;8.468;2023-05-10T03:57:41;13.30;99.90
11083;DHT22;5595;50.186;8.468;2023-05-10T04:00:09;13.20;99.90
11083;DHT22;5595;50.186;8.468;2023-05-10T04:02:38;13.30;99.90
11083;DHT22;5595;50.186;8.468;2023-05-10T04:05:05;13.40;99.90
11083;DHT22;5595;50.186;8.468;2023-05-10T04:07:32;13.30;99.90
11083;DHT22;5595;50.186;8.468;2023-05-10T04:09:59;13.30;99.90
11083;DHT22;5595;50.186;8.468;2023-05-10T04:12:29;13.30;99.90
11083;DHT22;5595;50.186;8.468;2023-05-10T04:14:59;13.30;99.90
11083;DHT22;5595;50.186;8.468;2023-05-10T04:17:26;13.30;99.90
11083;DHT22;5595;50.186;8.468;2023-05-10T04:19:56;13.30;99.90
11083;DHT22;5595;50.186;8.468;2023-05-10T04:22:22;13.20;99.90
11083;DHT22;5595;50.186;8.468;2023-05-10T04:24:49;13.40;99.90
11083;DHT22;5595;50.186;8.468;2023-05-10T04:27:16;13.30;99.90
11083;DHT22;5595;50.186;8.468;2023-05-10T04:29:43;13.40;99.90
11083;DHT22;5595;50.186;8.468;2023-05-10T04:32:13;13.40;99.90
11083;DHT22;5595;50.186;8.468;2023-05-10T04:34:41;13.40;99.90
11083;DHT22;5595;50.186;8.468;2023-05-10T04:37:09;13.40;99.90
11083;DHT22;5595;50.186;8.468;2023-05-10T04:39:36;13.50;99.90
11083;DHT22;5595;50.186;8.468;2023-05-10T04:42:03;13.40;99.90
11083;DHT22;5595;50.186;8.468;2023-05-10T04:44:31;13.50;99.90
11083;DHT22;5595;50.186;8.468;2023-05-10T04:46:59;13.50;99.90
11083;DHT22;5595;50.186;8.468;2023-05-10T04:49:26;13.50;99.90
11083;DHT22;5595;50.186;8.468;2023-05-10T04:51:53;13.50;99.90
11083;DHT22;5595;50.186;8.468;2023-05-10T04:54:21;13.50;99.90
11083;DHT22;5595;50.186;8.468;2023-05-10T04:56:48;13.50;99.90
11083;DHT22;5595;50.186;8.468;2023-05-10T04:59:15;13.60;99.90
11083;DHT22;5595;50.186;8.468;2023-05-10T05:01:42;13.50;99.90
11083;DHT22;5595;50.186;8.468;2023-05-10T05:04:08;13.70;99.90
11083;DHT22;5595;50.186;8.468;2023-05-10T05:06:35;13.60;99.90
11083;DHT22;5595;50.186;8.468;2023-05-10T05:09:02;13.60;99.90
11083;DHT22;5595;50.186;8.468;2023-05-10T05:11:30;13.60;99.90
11083;DHT22;5595;50.186;8.468;2023-05-10T05:13:57;13.70;99.90
11083;DHT22;5595;50.186;8.468;2023-05-10T05:16:25;13.70;99.90
11083;DHT22;5595;50.186;8.468;2023-05-10T05:18:52;13.80;99.90
11083;DHT22;5595;50.186;8.468;2023-05-10T05:21:19;13.80;99.90
11083;DHT22;5595;50.186;8.468;2023-05-10T05:23:46;13.70;99.90
11083;DHT22;5595;50.186;8.468;2023-05-10T05:26:13;13.70;99.90
11083;DHT22;5595;50.186;8.468;2023-05-10T05:28:41;13.60;99.90
11083;DHT22;5595;50.186;8.468;2023-05-10T05:31:09;13.70;99.90
11083;DHT22;5595;50.186;8.468;2023-05-10T05:33:36;13.60;99.90
11083;DHT22;5595;50.186;8.468;2023-05-10T05:36:04;13.60;99.90
11083;DHT22;5595;50.186;8.468;2023-05-10T05:38:31;13.60;99.90
11083;DHT22;5595;50.186;8.468;2023-05-10T05:40:58;13.60;99.90
11083;DHT22;5595;50.186;8.468;2023-05-10T05:43:27;13.60;99.90
11083;DHT22;5595;50.186;8.468;2023-05-10T05:46:05;13.80;99.90
11083;DHT22;5595;50.186;8.468;2023-05-10T05:48:32;13.80;99.90
11083;DHT22;5595;50.186;8.468;2023-05-10T05:50:59;13.80;99.90
11083;DHT22;5595;50.186;8.468;2023-05-10T05:53:25;13.90;99.90
11083;DHT22;5595;50.186;8.468;2023-05-10T05:55:53;13.80;99.90
11083;DHT22;5595;50.186;8.468;2023-05-10T05:58:20;13.90;99.90
11083;DHT22;5595;50.186;8.468;2023-05-10T06:00:47;13.90;99.90
11083;DHT22;5595;50.186;8.468;2023-05-10T06:03:16;13.90;99.90
11083;DHT22;5595;50.186;8.468;2023-05-10T06:05:43;14.00;99.90
11083;DHT22;5595;50.186;8.468;2023-05-10T06:08:10;14.00;99.90
11083;DHT22;5595;50.186;8.468;2023-05-10T06:10:36;14.10;99.90
11083;DHT22;5595;50.186;8.468;2023-05-10T06:13:03;14.10;99.90
11083;DHT22;5595;50.186;8.468;2023-05-10T06:15:30;14.20;99.90
11083;DHT22;5595;50.186;8.468;2023-05-10T06:17:58;14.20;99.90
11083;DHT22;5595;50.186;8.468;2023-05-10T06:20:26;14.40;99.90
11083;DHT22;5595;50.186;8.468;2023-05-10T06:22:53;14.50;99.90
11083;DHT22;5595;50.186;8.468;2023-05-10T06:25:20;14.50;99.90
11083;DHT22;5595;50.186;8.468;2023-05-10T06:27:49;14.40;99.90
11083;DHT22;5595;50.186;8.468;2023-05-10T06:30:20;14.50;99.90
11083;DHT22;5595;50.186;8.468;2023-05-10T06:32:48;14.70;99.90
11083;DHT22;5595;50.186;8.468;2023-05-10T06:35:21;14.70;99.90
11083;DHT22;5595;50.186;8.468;2023-05-10T06:37:53;14.70;99.90
11083;DHT22;5595;50.186;8.468;2023-05-10T06:40:19;14.70;99.90
11083;DHT22;5595;50.186;8.468;2023-05-10T06:42:46;14.70;99.90
11083;DHT22;5595;50.186;8.468;2023-05-10T06:45:14;14.70;99.90
11083;DHT22;5595;50.186;8.468;2023-05-10T06:47:41;14.70;99.90
11083;DHT22;5595;50.186;8.468;2023-05-10T06:50:09;14.80;99.90
11083;DHT22;5595;50.186;8.468;2023-05-10T06:52:37;14.90;99.90
11083;DHT22;5595;50.186;8.468;2023-05-10T06:55:06;15.00;99.90
11083;DHT22;5595;50.186;8.468;2023-05-10T06:57:33;15.10;99.90
11083;DHT22;5595;50.186;8.468;2023-05-10T07:00:00;15.20;99.90
11083;DHT22;5595;50.186;8.468;2023-05-10T07:02:29;15.50;99.90
11083;DHT22;5595;50.186;8.468;2023-05-10T07:04:56;15.70;99.90
11083;DHT22;5595;50.186;8.468;2023-05-10T07:07:23;15.80;99.90
11083;DHT22;5595;50.186;8.468;2023-05-10T07:09:50;16.10;99.90
11083;DHT22;5595;50.186;8.468;2023-05-10T07:12:18;16.30;99.90
11083;DHT22;5595;50.186;8.468;2023-05-10T07:14:45;16.40;99.90
11083;DHT22;5595;50.186;8.468;2023-05-10T07:17:12;16.30;99.90
11083;DHT22;5595;50.186;8.468;2023-05-10T07:19:39;16.40;99.90
11083;DHT22;5595;50.186;8.468;2023-05-10T07:22:05;16.40;99.90
11083;DHT22;5595;50.186;8.468;2023-05-10T07:24:32;16.40;99.90
11083;DHT22;5595;50.186;8.468;2023-05-10T07:26:59;16.50;99.90
11083;DHT22;5595;50.186;8.468;2023-05-10T07:29:28;16.70;99.90
11083;DHT22;5595;50.186;8.468;2023-05-10T07:31:55;16.90;99.90
11083;DHT22;5595;50.186;8.468;2023-05-10T07:34:22;16.90;99.90
11083;DHT22;5595;50.186;8.468;2023-05-10T07:36:48;16.70;99.90
11083;DHT22;5595;50.186;8.468;2023-05-10T07:39:16;16.60;99.90
11083;DHT22;5595;50.186;8.468;2023-05-10T07:41:43;16.50;99.90
11083;DHT22;5595;50.186;8.468;2023-05-10T07:44:10;16.40;99.90
11083;DHT22;5595;50.186;8.468;2023-05-10T07:46:38;16.50;99.90
11083;DHT22;5595;50.186;8.468;2023-05-10T07:49:05;16.40;99.90
11083;DHT22;5595;50.186;8.468;2023-05-10T07:51:32;16.40;99.90
11083;DHT22;5595;50.186;8.468;2023-05-10T07:53:59;16.50;99.90
11083;DHT22;5595;50.186;8.468;2023-05-10T07:56:27;16.50;99.90
11083;DHT22;5595;50.186;8.468;2023-05-10T07:58:55;16.60;99.90
11083;DHT22;5595;50.186;8.468;2023-05-10T08:01:22;16.60;99.90
11083;DHT22;5595;50.186;8.468;2023-05-10T08:03:51;16.70;99.90
11083;DHT22;5595;50.186;8.468;2023-05-10T08:06:19;16.70;99.90
11083;DHT22;5595;50.186;8.468;2023-05-10T08:08:47;16.60;99.90
11083;DHT22;5595;50.186;8.468;2023-05-10T08:11:16;16.60;99.90
11083;DHT22;5595;50.186;8.468;2023-05-10T08:13:43;16.60;99.90
11083;DHT22;5595;50.186;8.468;2023-05-10T08:16:10;16.80;99.90
11083;DHT22;5595;50.186;8.468;2023-05-10T08:18:38;16.80;99.90
11083;DHT22;5595;50.186;8.468;2023-05-10T08:21:06;16.90;99.90
11083;DHT22;5595;50.186;8.468;2023-05-10T08:23:34;16.90;99.90
11083;DHT22;5595;50.186;8.468;2023-05-10T08:26:01;17.00;99.90
11083;DHT22;5595;50.186;8.468;2023-05-10T08:28:28;17.00;99.90
11083;DHT22;5595;50.186;8.468;2023-05-10T08:30:55;17.00;99.90
11083;DHT22;5595;50.186;8.468;2023-05-10T08:33:22;17.00;99.90
11083;DHT22;5595;50.186;8.468;2023-05-10T08:35:49;17.00;99.90
11083;DHT22;5595;50.186;8.468;2023-05-10T08:38:18;17.00;99.90
11083;DHT22;5595;50.186;8.468;2023-05-10T08:40:45;17.00;99.90
11083;DHT22;5595;50.186;8.468;2023-05-10T08:43:12;17.00;99.90
11083;DHT22;5595;50.186;8.468;2023-05-10T08:45:42;17.10;99.90
11083;DHT22;5595;50.186;8.468;2023-05-10T08:48:11;17.00;99.90
11083;DHT22;5595;50.186;8.468;2023-05-10T08:50:39;17.10;99.90
11083;DHT22;5595;50.186;8.468;2023-05-10T08:53:22;17.20;99.90
11083;DHT22;5595;50.186;8.468;2023-05-10T08:55:52;17.30;99.90
11083;DHT22;5595;50.186;8.468;2023-05-10T08:58:20;17.40;99.90
11083;DHT22;5595;50.186;8.468;2023-05-10T09:00:49;17.40;99.90
11083;DHT22;5595;50.186;8.468;2023-05-10T09:03:17;17.50;99.90
11083;DHT22;5595;50.186;8.468;2023-05-10T09:05:45;17.70;99.90
11083;DHT22;5595;50.186;8.468;2023-05-10T09:08:25;18.00;99.90
11083;DHT22;5595;50.186;8.468;2023-05-10T09:10:57;18.40;99.90
11083;DHT22;5595;50.186;8.468;2023-05-10T09:13:24;18.50;99.90
11083;DHT22;5595;50.186;8.468;2023-05-10T09:15:53;18.80;99.90
11083;DHT22;5595;50.186;8.468;2023-05-10T09:18:20;18.90;99.90
11083;DHT22;5595;50.186;8.468;2023-05-10T09:20:48;19.10;99.90
11083;DHT22;5595;50.186;8.468;2023-05-10T09:23:16;19.20;99.90
11083;DHT22;5595;50.186;8.468;2023-05-10T09:25:44;19.30;99.90
11083;DHT22;5595;50.186;8.468;2023-05-10T09:28:11;19.00;99.90
11083;DHT22;5595;50.186;8.468;2023-05-10T09:30:38;18.80;99.90
11083;DHT22;5595;50.186;8.468;2023-05-10T09:33:06;19.00;99.90
11083;DHT22;5595;50.186;8.468;2023-05-10T09:35:33;18.90;99.90
11083;DHT22;5595;50.186;8.468;2023-05-10T09:38:03;18.90;99.90
11083;DHT22;5595;50.186;8.468;2023-05-10T09:40:31;18.90;99.90
11083;DHT22;5595;50.186;8.468;2023-05-10T09:43:00;18.90;99.90
11083;DHT22;5595;50.186;8.468;2023-05-10T09:45:29;18.70;99.90
11083;DHT22;5595;50.186;8.468;2023-05-10T09:47:58;18.80;99.90
11083;DHT22;5595;50.186;8.468;2023-05-10T09:50:26;19.00;99.90
11083;DHT22;5595;50.186;8.468;2023-05-10T09:52:54;19.30;99.90
11083;DHT22;5595;50.186;8.468;2023-05-10T09:55:26;19.60;99.90
11083;DHT22;5595;50.186;8.468;2023-05-10T09:58:11;19.50;99.90
11083;DHT22;5595;50.186;8.468;2023-05-10T10:00:39;19.40;99.90
11083;DHT22;5595;50.186;8.468;2023-05-10T10:03:12;19.40;99.90
11083;DHT22;5595;50.186;8.468;2023-05-10T10:05:41;19.20;99.90
11083;DHT22;5595;50.186;8.468;2023-05-10T10:08:09;19.00;99.90
11083;DHT22;5595;50.186;8.468;2023-05-10T10:10:36;19.00;99.90
11083;DHT22;5595;50.186;8.468;2023-05-10T10:13:04;18.90;99.90
11083;DHT22;5595;50.186;8.468;2023-05-10T10:15:33;18.50;99.90
11083;DHT22;5595;50.186;8.468;2023-05-10T10:18:00;18.30;99.90
11083;DHT22;5595;50.186;8.468;2023-05-10T10:20:29;18.30;99.90
11083;DHT22;5595;50.186;8.468;2023-05-10T10:22:56;18.20;99.90
11083;DHT22;5595;50.186;8.468;2023-05-10T10:25:22;18.00;99.90
11083;DHT22;5595;50.186;8.468;2023-05-10T10:28:01;17.90;99.90
11083;DHT22;5595;50.186;8.468;2023-05-10T10:30:39;17.60;99.90
11083;DHT22;5595;50.186;8.468;2023-05-10T10:33:30;17.30;99.90
11083;DHT22;5595;50.186;8.468;2023-05-10T10:36:01;17.20;99.90
11083;DHT22;5595;50.186;8.468;2023-05-10T10:38:37;16.90;99.90
11083;DHT22;5595;50.186;8.468;2023-05-10T10:41:09;16.80;99.90
11083;DHT22;5595;50.186;8.468;2023-05-10T10:43:37;16.80;99.90
11083;DHT22;5595;50.186;8.468;2023-05-10T10:46:12;16.80;99.90
11083;DHT22;5595;50.186;8.468;2023-05-10T10:48:40;16.80;99.90
11083;DHT22;5595;50.186;8.468;2023-05-10T10:51:07;16.80;99.90
11083;DHT22;5595;50.186;8.468;2023-05-10T10:53:34;16.80;99.90
11083;DHT22;5595;50.186;8.468;2023-05-10T10:56:08;16.90;99.90
11083;DHT22;5595;50.186;8.468;2023-05-10T10:58:36;17.10;99.90
11083;DHT22;5595;50.186;8.468;2023-05-10T11:01:15;17.50;99.90
11083;DHT22;5595;50.186;8.468;2023-05-10T11:06:39;17.90;99.90
11083;DHT22;5595;50.186;8.468;2023-05-10T11:09:08;17.70;99.90
11083;DHT22;5595;50.186;8.468;2023-05-10T11:11:56;17.60;99.90
11083;DHT22;5595;50.186;8.468;2023-05-10T11:14:25;17.50;99.90
11083;DHT22;5595;50.186;8.468;2023-05-10T11:16:54;17.10;99.90
11083;DHT22;5595;50.186;8.468;2023-05-10T11:19:21;17.00;99.90
11083;DHT22;5595;50.186;8.468;2023-05-10T11:21:49;16.90;99.90
11083;DHT22;5595;50.186;8.468;2023-05-10T11:24:18;16.90;99.90
11083;DHT22;5595;50.186;8.468;2023-05-10T11:26:49;16.80;99.90
11083;DHT22;5595;50.186;8.468;2023-05-10T11:29:17;16.90;99.90
11083;DHT22;5595;50.186;8.468;2023-05-10T11:31:45;17.00;99.90
11083;DHT22;5595;50.186;8.468;2023-05-10T11:34:23;17.20;99.90
11083;DHT22;5595;50.186;8.468;2023-05-10T11:36:52;17.60;99.90
11083;DHT22;5595;50.186;8.468;2023-05-10T11:39:19;17.90;99.90
11083;DHT22;5595;50.186;8.468;2023-05-10T11:41:48;18.20;99.90
11083;DHT22;5595;50.186;8.468;2023-05-10T11:44:15;18.40;99.90
11083;DHT22;5595;50.186;8.468;2023-05-10T11:46:42;18.70;99.90
11083;DHT22;5595;50.186;8.468;2023-05-10T11:49:08;18.90;99.90
11083;DHT22;5595;50.186;8.468;2023-05-10T11:51:37;19.10;99.90
11083;DHT22;5595;50.186;8.468;2023-05-10T11:54:06;19.20;99.90
11083;DHT22;5595;50.186;8.468;2023-05-10T11:56:34;19.40;99.90
11083;DHT22;5595;50.186;8.468;2023-05-10T11:59:01;19.40;99.90
11083;DHT22;5595;50.186;8.468;2023-05-10T12:01:28;19.40;99.90
11083;DHT22;5595;50.186;8.468;2023-05-10T12:03:57;19.40;99.90
11083;DHT22;5595;50.186;8.468;2023-05-10T12:06:26;19.00;99.90
11083;DHT22;5595;50.186;8.468;2023-05-10T12:08:55;18.80;99.90
11083;DHT22;5595;50.186;8.468;2023-05-10T12:11:25;18.60;99.90
11083;DHT22;5595;50.186;8.468;2023-05-10T12:13:53;18.50;99.90
11083;DHT22;5595;50.186;8.468;2023-05-10T12:16:21;18.30;99.90
11083;DHT22;5595;50.186;8.468;2023-05-10T12:18:49;18.40;99.90
11083;DHT22;5595;50.186;8.468;2023-05-10T12:21:18;18.50;99.90
11083;DHT22;5595;50.186;8.468;2023-05-10T12:23:45;18.60;99.90
11083;DHT22;5595;50.186;8.468;2023-05-10T12:26:14;18.50;99.90
11083;DHT22;5595;50.186;8.468;2023-05-10T12:28:41;18.70;99.90
11083;DHT22;5595;50.186;8.468;2023-05-10T12:31:08;18.90;99.90
11083;DHT22;5595;50.186;8.468;2023-05-10T12:33:36;19.20;99.90
11083;DHT22;5595;50.186;8.468;2023-05-10T12:36:07;19.50;99.90
11083;DHT22;5595;50.186;8.468;2023-05-10T12:38:35;19.40;99.90
11083;DHT22;5595;50.186;8.468;2023-05-10T12:41:05;19.50;99.90
11083;DHT22;5595;50.186;8.468;2023-05-10T12:43:34;19.60;99.90
11083;DHT22;5595;50.186;8.468;2023-05-10T12:46:05;19.70;99.90
11083;DHT22;5595;50.186;8.468;2023-05-10T12:48:33;19.80;99.90
11083;DHT22;5595;50.186;8.468;2023-05-10T12:51:01;20.00;99.90
11083;DHT22;5595;50.186;8.468;2023-05-10T12:53:28;20.20;99.90
11083;DHT22;5595;50.186;8.468;2023-05-10T12:55:55;20.40;99.90
11083;DHT22;5595;50.186;8.468;2023-05-10T12:58:22;20.40;99.90
11083;DHT22;5595;50.186;8.468;2023-05-10T13:00:50;20.50;99.90
11083;DHT22;5595;50.186;8.468;2023-05-10T13:03:18;20.30;99.90
11083;DHT22;5595;50.186;8.468;2023-05-10T13:06:00;20.00;99.90
11083;DHT22;5595;50.186;8.468;2023-05-10T13:08:27;19.60;99.90
11083;DHT22;5595;50.186;8.468;2023-05-10T13:10:58;19.30;99.90
11083;DHT22;5595;50.186;8.468;2023-05-10T13:13:29;18.80;99.90
11083;DHT22;5595;50.186;8.468;2023-05-10T13:15:57;18.50;99.90
11083;DHT22;5595;50.186;8.468;2023-05-10T13:18:24;18.20;99.90
11083;DHT22;5595;50.186;8.468;2023-05-10T13:20:52;17.90;99.90
11083;DHT22;5595;50.186;8.468;2023-05-10T13:23:24;17.90;99.90
11083;DHT22;5595;50.186;8.468;2023-05-10T13:25:51;17.60;99.90
11083;DHT22;5595;50.186;8.468;2023-05-10T13:28:18;17.60;99.90
11083;DHT22;5595;50.186;8.468;2023-05-10T13:30:45;17.60;99.90
11083;DHT22;5595;50.186;8.468;2023-05-10T13:33:14;17.60;99.90
11083;DHT22;5595;50.186;8.468;2023-05-10T13:35:41;17.70;99.90
11083;DHT22;5595;50.186;8.468;2023-05-10T13:38:09;17.80;99.90
11083;DHT22;5595;50.186;8.468;2023-05-10T13:40:36;17.70;99.90
11083;DHT22;5595;50.186;8.468;2023-05-10T13:43:03;17.70;99.90
11083;DHT22;5595;50.186;8.468;2023-05-10T13:45:30;17.80;99.90
11083;DHT22;5595;50.186;8.468;2023-05-10T13:47:57;17.90;99.90
11083;DHT22;5595;50.186;8.468;2023-05-10T13:50:26;18.00;99.90
11083;DHT22;5595;50.186;8.468;2023-05-10T13:52:53;18.00;99.90
11083;DHT22;5595;50.186;8.468;2023-05-10T13:55:27;17.90;99.90
11083;DHT22;5595;50.186;8.468;2023-05-10T13:57:54;17.80;99.90
11083;DHT22;5595;50.186;8.468;2023-05-10T14:00:21;17.90;99.90
11083;DHT22;5595;50.186;8.468;2023-05-10T14:02:48;17.90;99.90
11083;DHT22;5595;50.186;8.468;2023-05-10T14:05:15;18.10;99.90
11083;DHT22;5595;50.186;8.468;2023-05-10T14:07:43;18.30;99.90
11083;DHT22;5595;50.186;8.468;2023-05-10T14:10:10;18.70;99.90
11083;DHT22;5595;50.186;8.468;2023-05-10T14:12:37;18.80;99.90
11083;DHT22;5595;50.186;8.468;2023-05-10T14:15:05;18.90;99.90
11083;DHT22;5595;50.186;8.468;2023-05-10T14:17:32;19.20;99.90
11083;DHT22;5595;50.186;8.468;2023-05-10T14:19:59;19.20;99.90
11083;DHT22;5595;50.186;8.468;2023-05-10T14:22:27;19.10;99.90
11083;DHT22;5595;50.186;8.468;2023-05-10T14:24:55;19.20;99.90
11083;DHT22;5595;50.186;8.468;2023-05-10T14:27:25;19.30;99.90
11083;DHT22;5595;50.186;8.468;2023-05-10T14:29:51;19.40;99.90
11083;DHT22;5595;50.186;8.468;2023-05-10T14:32:18;19.50;99.90
11083;DHT22;5595;50.186;8.468;2023-05-10T14:34:45;19.60;99.90
11083;DHT22;5595;50.186;8.468;2023-05-10T14:37:13;19.60;99.90
11083;DHT22;5595;50.186;8.468;2023-05-10T14:39:41;19.80;99.90
11083;DHT22;5595;50.186;8.468;2023-05-10T14:42:09;19.80;99.90
11083;DHT22;5595;50.186;8.468;2023-05-10T14:44:36;19.80;99.90
11083;DHT22;5595;50.186;8.468;2023-05-10T14:47:03;19.70;99.90
11083;DHT22;5595;50.186;8.468;2023-05-10T14:49:30;19.70;99.90
11083;DHT22;5595;50.186;8.468;2023-05-10T14:51:57;19.60;99.90
11083;DHT22;5595;50.186;8.468;2023-05-10T14:54:24;19.90;99.90
11083;DHT22;5595;50.186;8.468;2023-05-10T14:56:51;20.00;99.90
11083;DHT22;5595;50.186;8.468;2023-05-10T14:59:20;20.20;99.90
11083;DHT22;5595;50.186;8.468;2023-05-10T15:01:47;20.40;99.90
11083;DHT22;5595;50.186;8.468;2023-05-10T15:04:14;20.50;99.90
11083;DHT22;5595;50.186;8.468;2023-05-10T15:06:42;20.50;99.90
11083;DHT22;5595;50.186;8.468;2023-05-10T15:09:09;20.50;99.90
11083;DHT22;5595;50.186;8.468;2023-05-10T15:11:37;20.50;99.90
11083;DHT22;5595;50.186;8.468;2023-05-10T15:14:04;20.50;99.90
11083;DHT22;5595;50.186;8.468;2023-05-10T15:16:32;20.50;99.90
11083;DHT22;5595;50.186;8.468;2023-05-10T15:18:59;20.60;99.90
11083;DHT22;5595;50.186;8.468;2023-05-10T15:21:26;20.70;99.90
11083;DHT22;5595;50.186;8.468;2023-05-10T15:23:54;20.70;99.90
11083;DHT22;5595;50.186;8.468;2023-05-10T15:26:21;20.80;99.90
11083;DHT22;5595;50.186;8.468;2023-05-10T15:28:48;20.80;99.90
11083;DHT22;5595;50.186;8.468;2023-05-10T15:31:15;20.80;99.90
11083;DHT22;5595;50.186;8.468;2023-05-10T15:33:43;20.70;99.90
11083;DHT22;5595;50.186;8.468;2023-05-10T15:36:10;20.60;99.90
11083;DHT22;5595;50.186;8.468;2023-05-10T15:38:36;20.60;99.90
11083;DHT22;5595;50.186;8.468;2023-05-10T15:41:03;20.60;99.90
11083;DHT22;5595;50.186;8.468;2023-05-10T15:43:30;20.50;99.90
11083;DHT22;5595;50.186;8.468;2023-05-10T15:45:57;20.50;99.90
11083;DHT22;5595;50.186;8.468;2023-05-10T15:48:24;20.60;99.90
11083;DHT22;5595;50.186;8.468;2023-05-10T15:50:53;20.60;99.90
11083;DHT22;5595;50.186;8.468;2023-05-10T15:53:20;20.50;99.90
11083;DHT22;5595;50.186;8.468;2023-05-10T15:55:47;20.60;99.90